Time;durP1;ratioP1;P1;durP2;ratioP2;P2;SDS_P1;SDS_P2;PMS_P1;PMS_P2;Temp;Humidity;BMP_temperature;BMP_pressure;BME280_temperature;BME280_humidity;BME280_pressure;Samples;Min_cycle;Max_cycle;Signal;HPM_P1;HPM_P2
2021/10/13 04:02:00;;;;;;;63.60;20.60;;;7.90;99.70;;;;;;5029531;28;20600;-61
2021/10/13 04:04:27;;;;;;;64.80;24.23;;;7.80;99.70;;;;;;5030087;28;20233;-63
2021/10/13 04:06:54;;;;;;;63.60;25.40;;;7.80;99.70;;;;;;5029879;28;20483;-62
2021/10/13 04:09:21;;;;;;;66.43;23.93;;;7.70;99.70;;;;;;5030235;28;20452;-62
2021/10/13 04:11:47;;;;;;;64.47;22.93;;;7.70;99.70;;;;;;5029495;28;20448;-61
2021/10/13 04:14:14;;;;;;;65.50;24.87;;;7.60;99.70;;;;;;5030201;28;20518;-63
2021/10/13 04:16:41;;;;;;;63.90;28.13;;;7.60;99.70;;;;;;5029695;28;20448;-63
2021/10/13 04:19:09;;;;;;;62.57;25.70;;;7.40;99.70;;;;;;5029987;28;20448;-63
2021/10/13 04:21:35;;;;;;;64.83;26.63;;;7.40;99.70;;;;;;5029970;28;20444;-63
2021/10/13 04:24:02;;;;;;;68.03;25.47;;;7.30;99.70;;;;;;5029815;28;20487;-62
2021/10/13 04:26:29;;;;;;;64.73;28.93;;;7.30;99.70;;;;;;5029737;28;20954;-63
2021/10/13 04:28:55;;;;;;;71.23;30.17;;;7.30;99.70;;;;;;5029847;28;20824;-63
2021/10/13 04:31:22;;;;;;;67.53;27.87;;;7.30;99.70;;;;;;5029688;28;20452;-63
2021/10/13 04:33:49;;;;;;;64.67;23.57;;;7.40;99.70;;;;;;5029287;28;20480;-63
2021/10/13 04:36:17;;;;;;;68.83;30.53;;;7.40;99.70;;;;;;5029765;28;20708;-61
2021/10/13 04:38:43;;;;;;;69.70;31.77;;;7.50;99.70;;;;;;5030809;28;20509;-63
2021/10/13 04:41:10;;;;;;;65.93;25.20;;;7.50;99.70;;;;;;5034004;28;20892;-63
2021/10/13 04:43:37;;;;;;;64.47;22.40;;;7.50;99.70;;;;;;5033370;28;20507;-61
2021/10/13 04:46:03;;;;;;;62.67;19.90;;;7.60;99.70;;;;;;5033314;28;20451;-61
2021/10/13 04:48:30;;;;;;;65.63;24.47;;;7.70;99.70;;;;;;5033813;28;20444;-63
2021/10/13 04:50:57;;;;;;;61.90;17.83;;;7.90;99.70;;;;;;5034293;28;20452;-63
2021/10/13 04:53:25;;;;;;;63.07;15.03;;;7.80;99.70;;;;;;5033885;28;20914;-61
2021/10/13 04:55:52;;;;;;;83.17;24.60;;;7.70;99.70;;;;;;5034155;28;20456;-62
2021/10/13 04:58:18;;;;;;;81.90;30.47;;;7.70;99.70;;;;;;5032341;28;20448;-59
2021/10/13 05:00:45;;;;;;;68.27;19.03;;;7.60;99.70;;;;;;5031755;28;20444;-59
2021/10/13 05:03:12;;;;;;;65.53;20.80;;;7.80;99.70;;;;;;5033593;28;20461;-63
2021/10/13 05:05:40;;;;;;;65.90;17.43;;;7.70;99.70;;;;;;5033532;28;20451;-63
2021/10/13 05:08:07;;;;;;;63.67;17.50;;;7.60;99.70;;;;;;5033061;28;20452;-64
2021/10/13 05:10:37;;;;;;;64.13;18.40;;;7.60;99.70;;;;;;5033139;28;20440;-63
2021/10/13 05:13:04;;;;;;;62.73;21.80;;;7.60;99.70;;;;;;5032427;28;21037;-64
2021/10/13 05:15:31;;;;;;;64.10;16.80;;;7.70;99.70;;;;;;5033177;28;20445;-63
2021/10/13 05:17:57;;;;;;;62.50;14.43;;;7.50;99.70;;;;;;5032754;28;20498;-63
2021/10/13 05:20:24;;;;;;;63.63;21.37;;;7.40;99.70;;;;;;5033619;28;20452;-62
2021/10/13 05:22:51;;;;;;;59.33;16.37;;;7.30;99.70;;;;;;5033266;28;20479;-63
2021/10/13 05:25:18;;;;;;;64.67;17.60;;;7.30;99.70;;;;;;5032940;28;20533;-61
2021/10/13 05:27:46;;;;;;;65.83;20.37;;;7.20;99.70;;;;;;5032493;28;20943;-62
2021/10/13 05:30:13;;;;;;;65.30;23.87;;;7.20;99.70;;;;;;5033366;28;20498;-63
2021/10/13 05:32:39;;;;;;;64.67;20.17;;;7.20;99.70;;;;;;5032969;28;20510;-63
2021/10/13 05:35:07;;;;;;;63.47;15.83;;;7.10;99.70;;;;;;5033032;28;20451;-62
2021/10/13 05:37:34;;;;;;;69.13;26.93;;;7.10;99.70;;;;;;5032600;28;20444;-63
2021/10/13 05:40:00;;;;;;;62.97;19.07;;;7.10;99.70;;;;;;5033059;28;20498;-61
2021/10/13 05:42:27;;;;;;;62.50;17.10;;;7.10;99.70;;;;;;5047170;23;20511;-66
2021/10/13 05:44:55;;;;;;;61.90;19.23;;;7.00;99.70;;;;;;5031355;28;20847;-66
2021/10/13 05:47:22;;;;;;;61.00;14.03;;;7.00;99.70;;;;;;5032519;28;20974;-66
2021/10/13 05:49:48;;;;;;;63.93;14.67;;;7.00;99.70;;;;;;5031914;28;20440;-66
2021/10/13 05:52:16;;;;;;;63.20;19.87;;;7.10;99.70;;;;;;5032027;28;20464;-66
2021/10/13 05:54:43;;;;;;;58.77;13.93;;;7.10;99.70;;;;;;5032582;28;20543;-66
2021/10/13 05:57:10;;;;;;;62.33;13.27;;;7.20;99.70;;;;;;5032142;28;20494;-66
2021/10/13 05:59:38;;;;;;;61.83;14.77;;;7.20;99.70;;;;;;5032606;28;20453;-66
2021/10/13 06:02:06;;;;;;;66.10;16.13;;;7.20;99.70;;;;;;5036968;28;20529;-66
2021/10/13 06:04:33;;;;;;;64.13;15.10;;;7.30;99.70;;;;;;5040021;28;20788;-66
2021/10/13 06:07:00;;;;;;;65.17;16.63;;;7.30;99.70;;;;;;5042593;28;20447;-66
2021/10/13 06:09:27;;;;;;;81.27;24.47;;;7.30;99.70;;;;;;5032288;28;20441;-66
2021/10/13 06:11:54;;;;;;;68.17;21.50;;;7.40;99.70;;;;;;5032046;28;20889;-66
2021/10/13 06:14:20;;;;;;;65.23;17.80;;;7.50;99.70;;;;;;5031830;28;20611;-66
2021/10/13 06:16:47;;;;;;;65.50;15.50;;;7.50;99.70;;;;;;5031873;28;21060;-66
2021/10/13 06:19:15;;;;;;;64.13;18.57;;;7.60;99.70;;;;;;5032039;28;20556;-67
2021/10/13 06:21:41;;;;;;;69.40;18.07;;;7.60;99.70;;;;;;5031748;28;20871;-66
2021/10/13 06:24:08;;;;;;;67.00;21.23;;;7.70;99.70;;;;;;5032078;28;20476;-66
2021/10/13 06:26:35;;;;;;;64.20;22.30;;;7.70;99.70;;;;;;5040073;28;20443;-66
2021/10/13 06:29:02;;;;;;;68.33;22.70;;;7.70;99.70;;;;;;5033434;28;20873;-66
2021/10/13 06:31:28;;;;;;;69.13;28.23;;;7.60;99.70;;;;;;5031542;28;20894;-66
2021/10/13 06:33:55;;;;;;;67.83;26.50;;;7.70;99.70;;;;;;5031985;28;20866;-66
2021/10/13 06:36:23;;;;;;;67.97;27.97;;;7.70;99.70;;;;;;5031365;28;20448;-66
2021/10/13 06:38:50;;;;;;;77.50;30.90;;;7.80;99.70;;;;;;5031668;28;20531;-66
2021/10/13 06:41:16;;;;;;;84.03;34.07;;;7.90;99.70;;;;;;5030748;28;20473;-66
2021/10/13 06:43:43;;;;;;;78.30;30.43;;;7.90;99.70;;;;;;5031692;28;20872;-66
2021/10/13 06:46:10;;;;;;;78.03;29.47;;;8.00;99.70;;;;;;5031340;28;20445;-66
2021/10/13 06:48:37;;;;;;;75.60;30.03;;;8.10;99.70;;;;;;5031139;28;20459;-66
2021/10/13 06:51:04;;;;;;;70.83;27.43;;;8.00;99.70;;;;;;5031695;28;20460;-67
2021/10/13 06:53:32;;;;;;;72.67;28.10;;;8.00;99.70;;;;;;5031277;28;20936;-66
2021/10/13 06:55:58;;;;;;;71.17;28.93;;;7.90;99.70;;;;;;5031455;28;20445;-66
2021/10/13 06:58:25;;;;;;;71.80;29.50;;;7.90;99.70;;;;;;5030877;28;20802;-67
2021/10/13 07:00:52;;;;;;;80.93;31.03;;;8.00;99.70;;;;;;5031407;28;20451;-66
2021/10/13 07:03:19;;;;;;;74.70;28.57;;;7.90;99.70;;;;;;5030312;28;20916;-66
2021/10/13 07:05:45;;;;;;;71.90;27.57;;;8.10;99.70;;;;;;5031232;28;20530;-66
2021/10/13 07:08:12;;;;;;;75.73;28.80;;;8.10;99.70;;;;;;5030917;28;20449;-66
2021/10/13 07:10:40;;;;;;;75.90;30.30;;;7.90;99.70;;;;;;5030213;28;20453;-66
2021/10/13 07:13:07;;;;;;;70.37;25.50;;;8.00;99.70;;;;;;5030612;28;20464;-66
2021/10/13 07:15:33;;;;;;;112.60;36.03;;;8.20;99.70;;;;;;5030885;28;20821;-66
2021/10/13 07:18:00;;;;;;;73.70;26.70;;;8.30;99.70;;;;;;5030673;28;20902;-67
2021/10/13 07:20:27;;;;;;;70.40;25.80;;;8.30;99.70;;;;;;5030904;28;20456;-66
2021/10/13 07:22:53;;;;;;;74.13;32.00;;;8.30;99.70;;;;;;5030878;28;20472;-66
2021/10/13 07:25:23;;;;;;;72.63;27.83;;;8.50;99.70;;;;;;5030251;28;21029;-67
2021/10/13 07:27:52;;;;;;;77.40;30.50;;;8.50;99.70;;;;;;5030285;28;20452;-67
2021/10/13 07:30:24;;;;;;;73.80;28.00;;;8.50;99.70;;;;;;5031010;28;20440;-67
2021/10/13 07:32:51;;;;;;;70.00;28.30;;;8.50;99.70;;;;;;5030666;28;20555;-67
2021/10/13 07:35:18;;;;;;;68.33;26.20;;;8.50;99.70;;;;;;5030213;28;20452;-66
2021/10/13 07:37:45;;;;;;;72.53;27.57;;;8.60;99.70;;;;;;5029916;28;20454;-66
2021/10/13 07:40:12;;;;;;;68.03;26.70;;;8.60;99.70;;;;;;5030668;28;20811;-67
2021/10/13 07:42:39;;;;;;;65.57;25.10;;;8.80;99.70;;;;;;5030250;28;20475;-67
2021/10/13 07:45:08;;;;;;;67.27;23.37;;;9.10;99.70;;;;;;5029137;28;20480;-67
2021/10/13 07:47:35;;;;;;;68.00;22.60;;;9.10;99.70;;;;;;5029893;28;20447;-67
2021/10/13 07:50:02;;;;;;;68.43;20.03;;;9.10;99.70;;;;;;5030654;28;20448;-67
2021/10/13 07:52:29;;;;;;;63.43;21.70;;;9.20;99.70;;;;;;5016853;28;20987;-67
2021/10/13 07:54:56;;;;;;;62.57;17.30;;;9.20;99.70;;;;;;5030453;28;20437;-67
2021/10/13 07:57:22;;;;;;;61.63;18.73;;;9.10;99.70;;;;;;5029997;28;20459;-67
2021/10/13 07:59:50;;;;;;;61.33;17.77;;;9.20;99.70;;;;;;5030494;28;20447;-66
2021/10/13 08:02:18;;;;;;;60.47;17.03;;;9.40;99.70;;;;;;5029585;28;20472;-67
2021/10/13 08:04:45;;;;;;;63.60;17.20;;;9.30;99.70;;;;;;5029152;28;20480;-66
2021/10/13 08:07:11;;;;;;;58.20;16.53;;;9.20;99.70;;;;;;5029870;28;20472;-67
2021/10/13 08:09:38;;;;;;;61.67;19.03;;;9.20;99.70;;;;;;5021623;28;20469;-67
2021/10/13 08:12:05;;;;;;;61.73;14.73;;;9.30;99.70;;;;;;5022217;28;20470;-68
2021/10/13 08:14:32;;;;;;;62.57;15.63;;;9.40;99.70;;;;;;5028953;28;20449;-66
2021/10/13 08:16:58;;;;;;;56.93;13.10;;;9.30;99.70;;;;;;5029581;28;20494;-68
2021/10/13 08:19:27;;;;;;;53.67;11.00;;;9.40;99.70;;;;;;5030050;28;20452;-66
2021/10/13 08:21:53;;;;;;;56.87;10.60;;;9.80;99.70;;;;;;5029921;28;20487;-67
2021/10/13 08:24:20;;;;;;;49.37;8.70;;;10.00;99.70;;;;;;5028980;28;20463;-68
2021/10/13 08:26:49;;;;;;;60.47;13.40;;;10.30;99.70;;;;;;5029247;28;20471;-67
2021/10/13 08:29:15;;;;;;;53.00;9.53;;;10.70;99.70;;;;;;5015812;28;20560;-67
2021/10/13 08:31:42;;;;;;;52.67;9.07;;;11.10;99.70;;;;;;5010025;28;20469;-66
2021/10/13 08:34:09;;;;;;;50.10;7.93;;;11.30;99.70;;;;;;5027102;28;20445;-66
2021/10/13 08:36:37;;;;;;;49.47;9.33;;;11.10;99.70;;;;;;5029314;28;20440;-66
2021/10/13 08:39:04;;;;;;;50.50;6.87;;;11.00;99.70;;;;;;5029799;28;20958;-65
2021/10/13 08:41:31;;;;;;;57.50;9.83;;;11.10;99.70;;;;;;5029581;28;20487;-66
2021/10/13 08:43:58;;;;;;;48.27;10.20;;;11.20;99.70;;;;;;5029585;28;20441;-65
2021/10/13 08:46:24;;;;;;;51.10;8.70;;;11.40;99.70;;;;;;5028932;28;20840;-65
2021/10/13 08:48:51;;;;;;;48.83;7.27;;;11.10;99.70;;;;;;5029232;28;20460;-65
2021/10/13 08:51:18;;;;;;;50.17;9.10;;;11.10;99.70;;;;;;5029301;28;20816;-66
2021/10/13 08:53:46;;;;;;;50.57;11.10;;;10.80;99.70;;;;;;5029344;28;20850;-67
2021/10/13 08:56:13;;;;;;;49.77;9.07;;;10.60;99.70;;;;;;5029626;28;20964;-67
2021/10/13 08:58:41;;;;;;;53.87;10.93;;;10.50;99.70;;;;;;5029525;28;20448;-68
2021/10/13 09:01:10;;;;;;;49.70;8.03;;;10.60;99.70;;;;;;5029797;28;20594;-67
2021/10/13 09:03:38;;;;;;;53.30;10.47;;;10.70;99.70;;;;;;5029418;28;20459;-66
2021/10/13 09:06:19;;;;;;;50.70;8.67;;;10.60;99.70;;;;;;5029516;28;20534;-67
2021/10/13 09:08:58;;;;;;;52.33;9.00;;;11.30;99.70;;;;;;5029521;28;20935;-67
2021/10/13 09:11:33;;;;;;;52.83;12.00;;;12.20;99.70;;;;;;5029705;28;20460;-65
2021/10/13 09:14:22;;;;;;;55.00;18.57;;;12.30;99.70;;;;;;5029322;28;20543;-66
2021/10/13 09:16:55;;;;;;;53.80;16.30;;;11.90;99.70;;;;;;5026342;28;20825;-65
2021/10/13 09:19:24;;;;;;;55.53;12.87;;;11.40;99.70;;;;;;5029579;28;20532;-65
2021/10/13 09:21:53;;;;;;;52.80;12.57;;;11.80;99.70;;;;;;5029868;28;20519;-65
2021/10/13 09:24:22;;;;;;;53.23;14.43;;;12.20;99.70;;;;;;5029651;28;20837;-66
2021/10/13 09:26:49;;;;;;;54.47;12.53;;;12.30;99.70;;;;;;5032510;28;20480;-65
2021/10/13 09:29:16;;;;;;;55.90;16.07;;;12.20;99.70;;;;;;5032988;28;21018;-65
2021/10/13 09:31:43;;;;;;;52.87;12.37;;;12.10;99.70;;;;;;5033095;28;20483;-65
2021/10/13 09:34:10;;;;;;;50.53;10.43;;;12.00;99.70;;;;;;5032752;28;20455;-65
2021/10/13 09:36:39;;;;;;;53.80;14.60;;;12.00;99.70;;;;;;5031435;28;20444;-65
2021/10/13 09:39:11;;;;;;;54.80;16.10;;;11.80;99.70;;;;;;5032864;28;20448;-65
2021/10/13 09:42:01;;;;;;;53.43;10.20;;;11.50;99.70;;;;;;5031750;28;20484;-66
2021/10/13 09:44:29;;;;;;;53.20;9.63;;;11.40;99.70;;;;;;5032907;28;20444;-66
2021/10/13 09:47:00;;;;;;;57.87;12.07;;;11.20;99.70;;;;;;5032101;28;20480;-66
2021/10/13 09:49:32;;;;;;;58.90;11.47;;;10.80;99.70;;;;;;5032489;28;20455;-67
2021/10/13 09:52:08;;;;;;;59.07;12.20;;;10.40;99.70;;;;;;5014069;28;20519;-67
2021/10/13 09:54:36;;;;;;;64.70;14.40;;;10.10;99.70;;;;;;5022577;28;20469;-67
2021/10/13 09:57:17;;;;;;;58.27;11.20;;;10.10;99.70;;;;;;5031933;28;20441;-67
2021/10/13 10:00:02;;;;;;;59.53;10.10;;;10.20;99.70;;;;;;5030410;28;20672;-67
2021/10/13 10:02:32;;;;;;;55.13;9.60;;;10.20;99.70;;;;;;5032184;28;20491;-67
2021/10/13 10:05:02;;;;;;;56.33;11.40;;;10.20;99.70;;;;;;5031250;28;20472;-67
2021/10/13 10:07:29;;;;;;;59.00;12.47;;;10.20;99.70;;;;;;5031126;28;20539;-67
2021/10/13 10:10:14;;;;;;;56.93;10.80;;;10.30;99.70;;;;;;5030887;28;20453;-67
2021/10/13 10:13:01;;;;;;;56.60;9.97;;;10.40;99.70;;;;;;5032691;28;20464;-67
2021/10/13 10:15:33;;;;;;;56.77;11.13;;;10.50;99.70;;;;;;5032254;28;20932;-67
2021/10/13 10:18:01;;;;;;;55.27;9.67;;;10.60;99.70;;;;;;5031796;28;20449;-68
2021/10/13 10:20:36;;;;;;;47.70;8.20;;;10.60;99.70;;;;;;5031574;28;20456;-67
2021/10/13 10:23:28;;;;;;;48.73;9.57;;;10.70;99.70;;;;;;5032073;28;21000;-67
2021/10/13 10:25:54;;;;;;;49.43;10.53;;;10.80;99.70;;;;;;5032037;28;20503;-67
2021/10/13 10:28:53;;;;;;;51.40;7.80;;;10.80;99.70;;;;;;5031637;28;20963;-67
2021/10/13 10:31:40;;;;;;;47.10;7.40;;;10.90;99.70;;;;;;5029811;28;20469;-67
2021/10/13 10:34:15;;;;;;;47.70;8.23;;;10.90;99.70;;;;;;5031633;28;20448;-67
2021/10/13 10:37:11;;;;;;;44.70;4.80;;;10.80;99.70;;;;;;5030870;28;20439;-67
2021/10/13 10:39:57;;;;;;;48.03;6.87;;;10.90;99.70;;;;;;5031660;28;20452;-67
2021/10/13 10:42:54;;;;;;;43.53;4.80;;;11.00;99.70;;;;;;5031593;28;21029;-67
2021/10/13 10:45:24;;;;;;;45.63;5.10;;;10.90;99.70;;;;;;5031766;28;20571;-67
2021/10/13 10:48:09;;;;;;;47.57;5.23;;;11.00;99.70;;;;;;5030927;28;20440;-67
2021/10/13 10:51:02;;;;;;;46.83;4.70;;;11.00;99.70;;;;;;5031634;28;20444;-67
2021/10/13 10:53:49;;;;;;;45.50;5.00;;;11.20;99.70;;;;;;5031625;28;20480;-67
2021/10/13 10:56:19;;;;;;;44.67;4.80;;;11.20;99.70;;;;;;5029985;28;20476;-67
2021/10/13 10:58:59;;;;;;;47.13;4.37;;;11.20;99.70;;;;;;5031110;28;20452;-67
2021/10/13 11:01:27;;;;;;;43.07;3.70;;;11.40;99.70;;;;;;5031514;28;20460;-67
2021/10/13 11:03:54;;;;;;;44.23;4.30;;;11.50;99.70;;;;;;5031403;28;20444;-67
2021/10/13 11:06:22;;;;;;;46.27;4.20;;;11.60;99.70;;;;;;5031055;28;20476;-67
2021/10/13 11:09:02;;;;;;;46.97;4.90;;;11.70;99.70;;;;;;5030958;28;20456;-66
2021/10/13 11:11:32;;;;;;;47.00;5.07;;;11.50;99.70;;;;;;5031219;28;20491;-67
2021/10/13 11:14:05;;;;;;;48.50;7.40;;;11.50;99.70;;;;;;5031300;28;20518;-66
2021/10/13 11:16:35;;;;;;;49.40;7.40;;;11.40;99.70;;;;;;5030950;28;20452;-67
2021/10/13 11:19:10;;;;;;;52.27;9.60;;;11.40;99.70;;;;;;5030739;28;20445;-66
2021/10/13 11:21:37;;;;;;;54.30;9.63;;;11.30;99.70;;;;;;5030757;28;20472;-66
2021/10/13 11:24:05;;;;;;;53.90;9.10;;;11.10;99.70;;;;;;5031148;28;20449;-66
2021/10/13 11:26:31;;;;;;;56.07;8.53;;;11.10;99.70;;;;;;5030512;28;20854;-66
2021/10/13 11:28:58;;;;;;;49.50;6.97;;;11.20;99.70;;;;;;5028549;28;20644;-66
2021/10/13 11:31:25;;;;;;;49.43;7.73;;;11.10;99.70;;;;;;5020256;28;20562;-67
2021/10/13 11:34:06;;;;;;;49.53;8.20;;;11.10;99.70;;;;;;5014956;28;20465;-67
2021/10/13 11:36:33;;;;;;;53.30;8.30;;;11.10;99.70;;;;;;5020453;28;20457;-67
2021/10/13 11:39:00;;;;;;;52.73;8.37;;;10.90;99.70;;;;;;5026519;28;20479;-66
2021/10/13 11:41:31;;;;;;;55.00;11.03;;;11.10;99.70;;;;;;5026828;28;20492;-67
2021/10/13 11:44:04;;;;;;;59.40;11.77;;;11.10;99.70;;;;;;5021478;28;20456;-66
2021/10/13 11:46:30;;;;;;;62.00;11.10;;;10.90;99.70;;;;;;5027463;28;20519;-67
2021/10/13 11:49:04;;;;;;;57.30;11.80;;;10.80;99.70;;;;;;5021582;28;20899;-66
2021/10/13 11:51:32;;;;;;;57.27;12.07;;;10.80;99.70;;;;;;5022520;28;20572;-66
2021/10/13 11:53:59;;;;;;;57.80;11.20;;;10.70;99.70;;;;;;5030412;28;20503;-66
2021/10/13 11:56:25;;;;;;;56.83;12.23;;;10.80;99.70;;;;;;5029585;28;20970;-66
2021/10/13 11:59:10;;;;;;;53.07;10.17;;;11.00;99.70;;;;;;5030331;28;20445;-66
2021/10/13 12:01:37;;;;;;;54.20;9.43;;;11.10;99.70;;;;;;5028179;28;20566;-66
2021/10/13 12:04:10;;;;;;;53.83;8.60;;;11.10;99.70;;;;;;5027395;28;21198;-66
2021/10/13 12:06:43;;;;;;;55.87;8.70;;;11.10;99.70;;;;;;5029590;28;20476;-66
2021/10/13 12:09:10;;;;;;;51.80;9.20;;;11.10;99.70;;;;;;5031364;28;20449;-66
2021/10/13 12:11:38;;;;;;;52.57;6.90;;;11.20;99.70;;;;;;5029680;28;20471;-66
2021/10/13 12:14:11;;;;;;;47.30;6.70;;;11.20;99.70;;;;;;5028420;28;20503;-66
2021/10/13 12:16:38;;;;;;;48.90;7.43;;;11.10;99.70;;;;;;5029168;28;20826;-66
2021/10/13 12:19:11;;;;;;;48.67;7.27;;;11.00;99.70;;;;;;5029730;28;20451;-66
2021/10/13 12:21:38;;;;;;;49.87;7.60;;;10.90;99.70;;;;;;5029857;28;20527;-66
2021/10/13 12:24:07;;;;;;;49.80;7.87;;;10.80;99.70;;;;;;5029744;28;20448;-66
2021/10/13 12:26:38;;;;;;;51.53;7.93;;;10.80;99.70;;;;;;5029660;28;20571;-66
2021/10/13 12:29:09;;;;;;;51.37;7.23;;;10.90;99.70;;;;;;5024137;28;20460;-66
2021/10/13 12:31:36;;;;;;;46.37;6.53;;;10.90;99.70;;;;;;5015919;28;21071;-66
2021/10/13 12:34:05;;;;;;;44.90;5.83;;;10.90;99.70;;;;;;5026043;28;20688;-66
2021/10/13 12:36:33;;;;;;;49.00;6.70;;;11.00;99.70;;;;;;5027624;28;20460;-67
2021/10/13 12:39:03;;;;;;;43.80;5.00;;;11.20;99.70;;;;;;5019641;28;20444;-66
2021/10/13 12:41:32;;;;;;;45.60;5.10;;;11.30;99.70;;;;;;5029444;28;20851;-66
2021/10/13 12:43:59;;;;;;;43.97;4.80;;;11.30;99.70;;;;;;5035352;28;20873;-66
2021/10/13 12:46:29;;;;;;;44.07;5.97;;;11.50;99.70;;;;;;5037005;28;20479;-67
2021/10/13 12:48:57;;;;;;;41.90;3.90;;;11.30;99.70;;;;;;5036560;28;20463;-66
2021/10/13 12:51:24;;;;;;;42.20;4.67;;;11.20;99.70;;;;;;5037435;28;20467;-67
2021/10/13 12:53:52;;;;;;;43.03;3.87;;;11.20;99.70;;;;;;5036061;28;20447;-66
2021/10/13 12:56:20;;;;;;;45.20;4.30;;;11.10;99.70;;;;;;5030722;28;20471;-66
2021/10/13 12:58:49;;;;;;;41.70;3.40;;;11.10;99.70;;;;;;5031569;28;20502;-66
2021/10/13 13:01:16;;;;;;;42.30;3.30;;;11.10;99.70;;;;;;5041517;28;20974;-67
2021/10/13 13:03:43;;;;;;;45.00;3.27;;;11.10;99.70;;;;;;5040886;28;20453;-66
2021/10/13 13:06:10;;;;;;;43.73;3.30;;;11.10;99.70;;;;;;5041851;28;20498;-67
2021/10/13 13:08:37;;;;;;;42.53;3.30;;;11.00;99.70;;;;;;5040060;28;20456;-67
2021/10/13 13:11:04;;;;;;;41.20;3.53;;;10.90;99.70;;;;;;5040554;28;20532;-66
2021/10/13 13:13:31;;;;;;;43.87;3.60;;;10.90;99.70;;;;;;5040688;28;20452;-66
2021/10/13 13:16:00;;;;;;;43.27;3.27;;;10.90;99.70;;;;;;5041285;28;20435;-68
2021/10/13 13:18:26;;;;;;;40.87;3.43;;;10.90;99.70;;;;;;5034976;28;20459;-66
2021/10/13 13:20:53;;;;;;;43.27;4.07;;;10.90;99.70;;;;;;5038043;28;20438;-66
2021/10/13 13:23:21;;;;;;;43.60;3.80;;;10.80;99.70;;;;;;5038968;28;20926;-66
2021/10/13 13:25:48;;;;;;;42.20;3.10;;;10.90;99.70;;;;;;5041451;28;21002;-67
2021/10/13 13:28:16;;;;;;;40.67;3.17;;;11.00;99.70;;;;;;5038323;28;20451;-66
2021/10/13 13:30:43;;;;;;;41.37;3.40;;;10.90;99.70;;;;;;5038654;28;21011;-66
2021/10/13 13:33:11;;;;;;;42.47;3.53;;;10.90;99.70;;;;;;5040744;28;20872;-66
2021/10/13 13:35:38;;;;;;;42.20;3.70;;;10.90;99.70;;;;;;5032746;28;20523;-66
2021/10/13 13:38:05;;;;;;;42.80;3.97;;;10.80;99.70;;;;;;5038381;28;20488;-67
2021/10/13 13:40:36;;;;;;;41.93;3.73;;;10.70;99.70;;;;;;5040755;28;20459;-66
2021/10/13 13:43:03;;;;;;;42.57;3.90;;;10.80;99.70;;;;;;5037655;28;20971;-66
2021/10/13 13:45:30;;;;;;;42.97;4.27;;;10.70;99.70;;;;;;5040312;28;20441;-67
2021/10/13 13:47:56;;;;;;;44.37;4.30;;;10.70;99.70;;;;;;5041305;28;20482;-66
2021/10/13 13:50:24;;;;;;;43.30;4.23;;;10.60;99.70;;;;;;5036441;28;20463;-66
2021/10/13 13:52:53;;;;;;;44.30;4.93;;;10.50;99.70;;;;;;5040339;28;20468;-66
2021/10/13 13:55:20;;;;;;;45.90;5.80;;;10.50;99.70;;;;;;5041126;28;20892;-67
2021/10/13 13:57:46;;;;;;;45.03;4.40;;;10.50;99.70;;;;;;5030959;28;20494;-67
2021/10/13 14:00:13;;;;;;;44.37;5.33;;;10.50;99.70;;;;;;5035273;28;20452;-68
2021/10/13 14:02:40;;;;;;;48.70;5.70;;;10.50;99.70;;;;;;5033234;28;20468;-66
2021/10/13 14:05:08;;;;;;;43.60;5.23;;;10.40;99.70;;;;;;5031172;28;20856;-66
2021/10/13 14:07:37;;;;;;;43.87;4.77;;;10.40;99.70;;;;;;5026198;28;20996;-66
2021/10/13 14:10:05;;;;;;;47.40;4.67;;;10.50;99.70;;;;;;5038047;28;20452;-66
2021/10/13 14:12:32;;;;;;;46.47;4.90;;;10.60;99.70;;;;;;5032745;28;20476;-67
2021/10/13 14:14:58;;;;;;;44.40;5.57;;;10.70;99.70;;;;;;5039896;28;20971;-67
2021/10/13 14:17:25;;;;;;;42.97;4.20;;;10.70;99.70;;;;;;5039849;28;20447;-66
2021/10/13 14:19:52;;;;;;;44.07;4.73;;;10.70;99.70;;;;;;5026214;28;20841;-67
2021/10/13 14:22:19;;;;;;;44.17;4.40;;;10.70;99.70;;;;;;5037574;28;20477;-66
2021/10/13 14:24:47;;;;;;;45.80;4.57;;;10.80;99.70;;;;;;5035199;28;20469;-66
2021/10/13 14:27:14;;;;;;;42.90;4.43;;;10.70;99.70;;;;;;5035054;28;20491;-66
2021/10/13 14:29:41;;;;;;;44.30;4.50;;;10.90;99.70;;;;;;5035098;28;20522;-68
2021/10/13 14:32:08;;;;;;;44.57;4.60;;;10.90;99.70;;;;;;5035155;28;20472;-66
2021/10/13 14:34:34;;;;;;;47.53;4.43;;;10.90;99.70;;;;;;5033887;28;20464;-67
2021/10/13 14:37:01;;;;;;;44.60;4.43;;;10.90;99.70;;;;;;5037517;28;20460;-67
2021/10/13 14:39:28;;;;;;;46.40;4.57;;;10.90;99.70;;;;;;5038134;28;20449;-67
2021/10/13 14:41:56;;;;;;;43.30;5.00;;;10.90;99.70;;;;;;5025877;28;20496;-66
2021/10/13 14:44:23;;;;;;;44.73;4.30;;;10.90;99.70;;;;;;5021768;28;20449;-67
2021/10/13 14:46:50;;;;;;;45.37;4.47;;;10.80;99.70;;;;;;5019745;28;20485;-66
2021/10/13 14:49:16;;;;;;;43.70;4.50;;;10.70;99.70;;;;;;5015124;28;20452;-67
2021/10/13 14:51:43;;;;;;;49.00;4.80;;;10.60;99.70;;;;;;5030434;28;20465;-67
2021/10/13 14:54:10;;;;;;;45.17;4.33;;;10.60;99.70;;;;;;5030487;28;20476;-66
2021/10/13 14:56:37;;;;;;;44.33;4.10;;;10.50;99.70;;;;;;5027839;28;20984;-66
2021/10/13 14:59:05;;;;;;;43.23;4.00;;;10.50;99.70;;;;;;5014293;28;20444;-66
2021/10/13 15:01:32;;;;;;;45.20;4.50;;;10.50;99.70;;;;;;5030581;28;20488;-67
2021/10/13 15:04:00;;;;;;;42.90;3.90;;;10.40;99.70;;;;;;5029999;28;20848;-66
2021/10/13 15:06:27;;;;;;;43.37;4.03;;;10.20;99.70;;;;;;5028992;28;20459;-66
2021/10/13 15:08:54;;;;;;;44.93;3.83;;;10.10;99.70;;;;;;5030651;28;20503;-66
2021/10/13 15:11:21;;;;;;;42.80;4.13;;;10.00;99.70;;;;;;5030381;28;20475;-66
2021/10/13 15:13:47;;;;;;;43.23;5.07;;;9.90;99.70;;;;;;5033716;28;20444;-67
2021/10/13 15:16:15;;;;;;;43.10;4.33;;;9.90;99.70;;;;;;5029630;28;20444;-66
2021/10/13 15:18:42;;;;;;;42.97;4.80;;;10.00;99.70;;;;;;5030247;28;20441;-66
2021/10/13 15:21:12;;;;;;;43.70;5.37;;;9.90;99.70;;;;;;5030319;28;20511;-66
2021/10/13 15:23:39;;;;;;;45.50;5.40;;;10.00;99.70;;;;;;5030863;28;20835;-66
2021/10/13 15:26:05;;;;;;;42.17;4.30;;;10.00;99.70;;;;;;5030413;28;20453;-66
2021/10/13 15:28:32;;;;;;;43.17;5.47;;;10.00;99.70;;;;;;5029943;28;21006;-66
2021/10/13 15:30:59;;;;;;;45.80;6.43;;;10.10;99.70;;;;;;5030835;28;20449;-67
2021/10/13 15:33:28;;;;;;;44.10;4.57;;;10.00;99.70;;;;;;5029041;28;20877;-66
2021/10/13 15:35:55;;;;;;;44.60;4.90;;;9.90;99.70;;;;;;5028122;28;20445;-66
2021/10/13 15:38:22;;;;;;;42.80;5.07;;;9.90;99.70;;;;;;5027680;28;20456;-66
2021/10/13 15:40:49;;;;;;;43.93;5.27;;;9.80;99.70;;;;;;5026508;28;20457;-66
2021/10/13 15:43:15;;;;;;;44.60;5.77;;;9.70;99.70;;;;;;5033413;28;20841;-66
2021/10/13 15:45:42;;;;;;;44.93;4.93;;;9.70;99.70;;;;;;5040476;28;20450;-66
2021/10/13 15:48:09;;;;;;;45.10;4.87;;;9.80;99.70;;;;;;5029434;28;20905;-66
2021/10/13 15:50:37;;;;;;;48.50;6.10;;;9.60;99.70;;;;;;5037611;28;20896;-66
2021/10/13 15:53:04;;;;;;;44.23;4.60;;;9.50;99.70;;;;;;5041398;28;20472;-66
2021/10/13 15:55:30;;;;;;;46.07;6.93;;;9.40;99.70;;;;;;5030698;28;20464;-67
2021/10/13 15:57:57;;;;;;;45.27;5.03;;;9.30;99.70;;;;;;5029931;28;20931;-66
2021/10/13 16:00:24;;;;;;;43.87;5.40;;;9.00;99.70;;;;;;5030190;28;20444;-66
2021/10/13 16:02:50;;;;;;;44.67;6.23;;;9.20;99.70;;;;;;5029622;28;20988;-66
2021/10/13 16:05:17;;;;;;;45.40;5.83;;;9.20;99.70;;;;;;5030038;28;20449;-66
2021/10/13 16:07:46;;;;;;;43.67;5.33;;;9.10;99.70;;;;;;5029192;28;20575;-66
2021/10/13 16:10:13;;;;;;;44.70;5.77;;;9.00;99.70;;;;;;5028591;28;20599;-66
2021/10/13 16:12:42;;;;;;;46.27;6.90;;;9.00;99.70;;;;;;5029752;28;20492;-64
2021/10/13 16:15:10;;;;;;;47.17;6.90;;;9.10;99.70;;;;;;5029889;28;20465;-65
2021/10/13 16:17:37;;;;;;;48.50;9.20;;;9.10;99.70;;;;;;5028962;28;20467;-65
2021/10/13 16:20:05;;;;;;;48.97;11.13;;;9.00;99.70;;;;;;5028452;28;20693;-65
2021/10/13 16:22:32;;;;;;;47.73;8.57;;;9.00;99.70;;;;;;5028620;28;20480;-66
2021/10/13 16:25:00;;;;;;;46.90;8.53;;;9.00;99.70;;;;;;5028847;28;20444;-65
2021/10/13 16:27:27;;;;;;;48.37;7.80;;;9.00;99.70;;;;;;5036085;28;20917;-66
2021/10/13 16:29:54;;;;;;;49.97;8.83;;;9.00;99.70;;;;;;5038327;28;20440;-65
2021/10/13 16:32:20;;;;;;;49.43;9.43;;;9.10;99.70;;;;;;5037672;28;20839;-65
2021/10/13 16:34:47;;;;;;;50.43;9.80;;;9.10;99.70;;;;;;5038258;28;20444;-65
2021/10/13 16:37:14;;;;;;;49.30;6.90;;;9.10;99.70;;;;;;5038764;28;20432;-65
2021/10/13 16:39:40;;;;;;;46.90;7.80;;;9.10;99.70;;;;;;5037820;28;20444;-65
2021/10/13 16:42:09;;;;;;;48.10;9.60;;;9.10;99.70;;;;;;5036339;28;20491;-66
2021/10/13 16:44:36;;;;;;;45.87;7.60;;;9.10;99.70;;;;;;5029583;28;20460;-67